sensor_id;sensor_type;location;lat;lon;timestamp;temperature;humidity
20795;DHT22;28087;-33.874;151.240;2023-02-26T00:00:47;25.70;99.90
20795;DHT22;28087;-33.874;151.240;2023-02-26T00:03:23;25.80;99.90
20795;DHT22;28087;-33.874;151.240;2023-02-26T00:06:02;25.80;99.90
20795;DHT22;28087;-33.874;151.240;2023-02-26T00:08:38;25.90;99.90
20795;DHT22;28087;-33.874;151.240;2023-02-26T00:11:15;26.10;99.90
20795;DHT22;28087;-33.874;151.240;2023-02-26T00:13:50;26.20;99.90
20795;DHT22;28087;-33.874;151.240;2023-02-26T00:16:29;26.30;99.90
20795;DHT22;28087;-33.874;151.240;2023-02-26T00:19:06;26.40;99.90
20795;DHT22;28087;-33.874;151.240;2023-02-26T00:21:44;26.40;99.90
20795;DHT22;28087;-33.874;151.240;2023-02-26T00:24:20;26.50;99.90
20795;DHT22;28087;-33.874;151.240;2023-02-26T00:26:56;26.50;99.90
20795;DHT22;28087;-33.874;151.240;2023-02-26T00:29:32;26.50;99.90
20795;DHT22;28087;-33.874;151.240;2023-02-26T00:32:09;26.50;99.90
20795;DHT22;28087;-33.874;151.240;2023-02-26T00:34:46;26.50;99.90
20795;DHT22;28087;-33.874;151.240;2023-02-26T00:37:32;26.50;99.90
20795;DHT22;28087;-33.874;151.240;2023-02-26T00:40:17;26.60;99.90
20795;DHT22;28087;-33.874;151.240;2023-02-26T00:42:57;26.60;99.90
20795;DHT22;28087;-33.874;151.240;2023-02-26T00:45:33;26.70;99.90
20795;DHT22;28087;-33.874;151.240;2023-02-26T00:48:24;26.60;99.90
20795;DHT22;28087;-33.874;151.240;2023-02-26T00:51:07;26.70;99.90
20795;DHT22;28087;-33.874;151.240;2023-02-26T00:53:48;26.70;99.90
20795;DHT22;28087;-33.874;151.240;2023-02-26T00:56:26;26.70;99.90
20795;DHT22;28087;-33.874;151.240;2023-02-26T00:59:02;26.70;99.90
20795;DHT22;28087;-33.874;151.240;2023-02-26T01:01:38;26.80;99.90
20795;DHT22;28087;-33.874;151.240;2023-02-26T01:04:16;26.80;99.90
20795;DHT22;28087;-33.874;151.240;2023-02-26T01:06:56;26.80;99.90
20795;DHT22;28087;-33.874;151.240;2023-02-26T01:09:35;26.70;99.90
20795;DHT22;28087;-33.874;151.240;2023-02-26T01:12:12;26.60;99.90
20795;DHT22;28087;-33.874;151.240;2023-02-26T01:14:49;26.60;99.90
20795;DHT22;28087;-33.874;151.240;2023-02-26T01:17:30;26.60;99.90
20795;DHT22;28087;-33.874;151.240;2023-02-26T01:20:12;26.50;99.90
20795;DHT22;28087;-33.874;151.240;2023-02-26T01:22:53;26.50;99.90
20795;DHT22;28087;-33.874;151.240;2023-02-26T01:25:38;26.50;99.90
20795;DHT22;28087;-33.874;151.240;2023-02-26T01:28:16;26.50;99.90
20795;DHT22;28087;-33.874;151.240;2023-02-26T01:30:54;26.60;99.90
20795;DHT22;28087;-33.874;151.240;2023-02-26T01:33:37;26.70;99.90
20795;DHT22;28087;-33.874;151.240;2023-02-26T01:36:18;26.70;99.90
20795;DHT22;28087;-33.874;151.240;2023-02-26T01:39:01;26.80;99.90
20795;DHT22;28087;-33.874;151.240;2023-02-26T01:41:43;26.80;99.90
20795;DHT22;28087;-33.874;151.240;2023-02-26T01:44:25;26.80;99.90
20795;DHT22;28087;-33.874;151.240;2023-02-26T01:47:13;26.80;99.90
20795;DHT22;28087;-33.874;151.240;2023-02-26T01:49:50;26.70;99.90
20795;DHT22;28087;-33.874;151.240;2023-02-26T01:55:43;26.70;99.90
20795;DHT22;28087;-33.874;151.240;2023-02-26T01:58:23;26.80;99.90
20795;DHT22;28087;-33.874;151.240;2023-02-26T02:00:59;26.90;99.90
20795;DHT22;28087;-33.874;151.240;2023-02-26T02:03:37;27.00;99.90
20795;DHT22;28087;-33.874;151.240;2023-02-26T02:06:17;27.10;99.90
20795;DHT22;28087;-33.874;151.240;2023-02-26T02:08:55;27.00;99.90
20795;DHT22;28087;-33.874;151.240;2023-02-26T02:11:30;27.10;99.90
20795;DHT22;28087;-33.874;151.240;2023-02-26T02:14:14;27.20;99.90
20795;DHT22;28087;-33.874;151.240;2023-02-26T02:16:57;27.30;99.90
20795;DHT22;28087;-33.874;151.240;2023-02-26T02:23:00;27.40;99.90
20795;DHT22;28087;-33.874;151.240;2023-02-26T02:26:00;27.40;99.90
20795;DHT22;28087;-33.874;151.240;2023-02-26T02:28:50;27.50;99.90
20795;DHT22;28087;-33.874;151.240;2023-02-26T02:31:37;27.60;99.90
20795;DHT22;28087;-33.874;151.240;2023-02-26T02:34:18;27.70;99.90
20795;DHT22;28087;-33.874;151.240;2023-02-26T02:36:58;27.80;99.90
20795;DHT22;28087;-33.874;151.240;2023-02-26T02:39:41;27.70;99.90
20795;DHT22;28087;-33.874;151.240;2023-02-26T02:42:22;27.70;99.90
20795;DHT22;28087;-33.874;151.240;2023-02-26T02:45:00;27.90;99.90
20795;DHT22;28087;-33.874;151.240;2023-02-26T02:47:42;27.90;99.90
20795;DHT22;28087;-33.874;151.240;2023-02-26T02:50:23;27.90;99.90
20795;DHT22;28087;-33.874;151.240;2023-02-26T02:53:04;27.80;99.90
20795;DHT22;28087;-33.874;151.240;2023-02-26T02:55:46;27.70;99.90
20795;DHT22;28087;-33.874;151.240;2023-02-26T02:58:27;27.80;99.90
20795;DHT22;28087;-33.874;151.240;2023-02-26T03:01:06;27.70;99.90
20795;DHT22;28087;-33.874;151.240;2023-02-26T03:03:53;27.70;99.90
20795;DHT22;28087;-33.874;151.240;2023-02-26T03:06:31;27.60;99.90
20795;DHT22;28087;-33.874;151.240;2023-02-26T03:09:08;27.50;99.90
20795;DHT22;28087;-33.874;151.240;2023-02-26T03:11:44;27.50;99.90
20795;DHT22;28087;-33.874;151.240;2023-02-26T03:14:20;27.60;99.90
20795;DHT22;28087;-33.874;151.240;2023-02-26T03:17:10;27.70;99.90
20795;DHT22;28087;-33.874;151.240;2023-02-26T03:20:01;27.90;99.90
20795;DHT22;28087;-33.874;151.240;2023-02-26T03:22:44;27.90;99.90
20795;DHT22;28087;-33.874;151.240;2023-02-26T03:25:27;28.00;99.90
20795;DHT22;28087;-33.874;151.240;2023-02-26T03:28:20;28.10;99.90
20795;DHT22;28087;-33.874;151.240;2023-02-26T03:31:06;28.20;99.90
20795;DHT22;28087;-33.874;151.240;2023-02-26T03:33:51;28.30;99.90
20795;DHT22;28087;-33.874;151.240;2023-02-26T03:36:34;28.40;99.90
20795;DHT22;28087;-33.874;151.240;2023-02-26T03:39:26;28.40;99.90
20795;DHT22;28087;-33.874;151.240;2023-02-26T03:42:06;28.50;99.90
20795;DHT22;28087;-33.874;151.240;2023-02-26T03:44:55;28.50;99.90
20795;DHT22;28087;-33.874;151.240;2023-02-26T03:47:32;28.60;99.90
20795;DHT22;28087;-33.874;151.240;2023-02-26T03:50:13;28.50;99.90
20795;DHT22;28087;-33.874;151.240;2023-02-26T03:53:14;28.50;99.90
20795;DHT22;28087;-33.874;151.240;2023-02-26T03:56:03;28.60;99.90
20795;DHT22;28087;-33.874;151.240;2023-02-26T03:58:59;28.70;99.90
20795;DHT22;28087;-33.874;151.240;2023-02-26T04:01:59;28.70;99.90
20795;DHT22;28087;-33.874;151.240;2023-02-26T04:04:45;28.80;99.90
20795;DHT22;28087;-33.874;151.240;2023-02-26T04:07:23;28.80;99.90
20795;DHT22;28087;-33.874;151.240;2023-02-26T04:10:01;28.70;99.90
20795;DHT22;28087;-33.874;151.240;2023-02-26T04:12:36;28.80;99.90
20795;DHT22;28087;-33.874;151.240;2023-02-26T04:15:12;28.90;99.90
20795;DHT22;28087;-33.874;151.240;2023-02-26T04:17:48;28.80;99.90
20795;DHT22;28087;-33.874;151.240;2023-02-26T04:20:24;28.70;99.90
20795;DHT22;28087;-33.874;151.240;2023-02-26T04:23:01;28.60;99.90
20795;DHT22;28087;-33.874;151.240;2023-02-26T04:25:40;28.60;99.90
20795;DHT22;28087;-33.874;151.240;2023-02-26T04:28:17;28.50;99.90
20795;DHT22;28087;-33.874;151.240;2023-02-26T04:30:53;28.40;99.90
20795;DHT22;28087;-33.874;151.240;2023-02-26T04:33:31;28.40;99.90
20795;DHT22;28087;-33.874;151.240;2023-02-26T04:36:07;28.10;99.90
20795;DHT22;28087;-33.874;151.240;2023-02-26T04:38:44;28.00;99.90
20795;DHT22;28087;-33.874;151.240;2023-02-26T04:41:21;28.00;99.90
20795;DHT22;28087;-33.874;151.240;2023-02-26T04:43:57;28.10;99.90
20795;DHT22;28087;-33.874;151.240;2023-02-26T04:46:34;28.30;99.90
20795;DHT22;28087;-33.874;151.240;2023-02-26T04:49:09;28.30;99.90
20795;DHT22;28087;-33.874;151.240;2023-02-26T04:51:46;28.20;99.90
20795;DHT22;28087;-33.874;151.240;2023-02-26T04:54:23;28.10;99.90
20795;DHT22;28087;-33.874;151.240;2023-02-26T04:57:00;27.90;99.90
20795;DHT22;28087;-33.874;151.240;2023-02-26T04:59:36;27.70;99.90
20795;DHT22;28087;-33.874;151.240;2023-02-26T05:02:14;27.70;99.90
20795;DHT22;28087;-33.874;151.240;2023-02-26T05:04:53;27.70;99.90
20795;DHT22;28087;-33.874;151.240;2023-02-26T05:07:28;27.70;99.90
20795;DHT22;28087;-33.874;151.240;2023-02-26T05:10:06;27.60;99.90
20795;DHT22;28087;-33.874;151.240;2023-02-26T05:12:44;27.50;99.90
20795;DHT22;28087;-33.874;151.240;2023-02-26T05:15:19;27.50;99.90
20795;DHT22;28087;-33.874;151.240;2023-02-26T05:17:55;27.40;99.90
20795;DHT22;28087;-33.874;151.240;2023-02-26T05:20:31;27.40;99.90
20795;DHT22;28087;-33.874;151.240;2023-02-26T05:23:07;27.40;99.90
20795;DHT22;28087;-33.874;151.240;2023-02-26T05:25:44;27.40;99.90
20795;DHT22;28087;-33.874;151.240;2023-02-26T05:28:21;27.30;99.90
20795;DHT22;28087;-33.874;151.240;2023-02-26T05:30:58;27.20;99.90
20795;DHT22;28087;-33.874;151.240;2023-02-26T05:33:33;27.10;99.90
20795;DHT22;28087;-33.874;151.240;2023-02-26T05:36:09;27.10;99.90
20795;DHT22;28087;-33.874;151.240;2023-02-26T05:38:45;27.00;99.90
20795;DHT22;28087;-33.874;151.240;2023-02-26T05:41:21;27.00;99.90
20795;DHT22;28087;-33.874;151.240;2023-02-26T05:43:59;26.90;99.90
20795;DHT22;28087;-33.874;151.240;2023-02-26T05:46:34;26.90;99.90
20795;DHT22;28087;-33.874;151.240;2023-02-26T05:49:10;26.80;99.90
20795;DHT22;28087;-33.874;151.240;2023-02-26T05:51:46;26.70;99.90
20795;DHT22;28087;-33.874;151.240;2023-02-26T05:54:21;26.60;99.90
20795;DHT22;28087;-33.874;151.240;2023-02-26T05:56:58;26.40;99.90
20795;DHT22;28087;-33.874;151.240;2023-02-26T05:59:35;26.50;99.90
20795;DHT22;28087;-33.874;151.240;2023-02-26T06:02:11;26.50;99.90
20795;DHT22;28087;-33.874;151.240;2023-02-26T06:04:47;26.50;99.90
20795;DHT22;28087;-33.874;151.240;2023-02-26T06:07:22;26.40;99.90
20795;DHT22;28087;-33.874;151.240;2023-02-26T06:09:59;26.40;99.90
20795;DHT22;28087;-33.874;151.240;2023-02-26T06:12:36;26.40;99.90
20795;DHT22;28087;-33.874;151.240;2023-02-26T06:15:13;26.40;99.90
20795;DHT22;28087;-33.874;151.240;2023-02-26T06:17:49;26.30;99.90
20795;DHT22;28087;-33.874;151.240;2023-02-26T06:20:24;26.30;99.90
20795;DHT22;28087;-33.874;151.240;2023-02-26T06:23:00;26.30;99.90
20795;DHT22;28087;-33.874;151.240;2023-02-26T06:25:36;26.30;99.90
20795;DHT22;28087;-33.874;151.240;2023-02-26T06:28:12;26.30;99.90
20795;DHT22;28087;-33.874;151.240;2023-02-26T06:30:51;26.30;99.90
20795;DHT22;28087;-33.874;151.240;2023-02-26T06:33:27;26.20;99.90
20795;DHT22;28087;-33.874;151.240;2023-02-26T06:36:03;26.20;99.90
20795;DHT22;28087;-33.874;151.240;2023-02-26T06:38:40;26.00;99.90
20795;DHT22;28087;-33.874;151.240;2023-02-26T06:41:16;25.90;99.90
20795;DHT22;28087;-33.874;151.240;2023-02-26T06:43:52;25.90;99.90
20795;DHT22;28087;-33.874;151.240;2023-02-26T06:46:29;25.80;99.90
20795;DHT22;28087;-33.874;151.240;2023-02-26T06:49:05;25.70;99.90
20795;DHT22;28087;-33.874;151.240;2023-02-26T06:51:41;25.70;99.90
20795;DHT22;28087;-33.874;151.240;2023-02-26T06:54:16;25.70;99.90
20795;DHT22;28087;-33.874;151.240;2023-02-26T06:56:51;25.60;99.90
20795;DHT22;28087;-33.874;151.240;2023-02-26T06:59:30;25.60;99.90
20795;DHT22;28087;-33.874;151.240;2023-02-26T07:02:08;25.70;99.90
20795;DHT22;28087;-33.874;151.240;2023-02-26T07:04:44;25.70;99.90
20795;DHT22;28087;-33.874;151.240;2023-02-26T07:07:19;25.70;99.90
20795;DHT22;28087;-33.874;151.240;2023-02-26T07:09:55;25.60;99.90
20795;DHT22;28087;-33.874;151.240;2023-02-26T07:12:30;25.70;99.90
20795;DHT22;28087;-33.874;151.240;2023-02-26T07:15:07;25.70;99.90
20795;DHT22;28087;-33.874;151.240;2023-02-26T07:17:44;25.70;99.90
20795;DHT22;28087;-33.874;151.240;2023-02-26T07:20:20;25.70;99.90
20795;DHT22;28087;-33.874;151.240;2023-02-26T07:22:57;25.80;99.90
20795;DHT22;28087;-33.874;151.240;2023-02-26T07:25:33;25.70;99.90
20795;DHT22;28087;-33.874;151.240;2023-02-26T07:28:08;25.80;99.90
20795;DHT22;28087;-33.874;151.240;2023-02-26T07:30:44;25.80;99.90
20795;DHT22;28087;-33.874;151.240;2023-02-26T07:33:22;25.70;99.90
20795;DHT22;28087;-33.874;151.240;2023-02-26T07:35:59;25.70;99.90
20795;DHT22;28087;-33.874;151.240;2023-02-26T07:38:35;25.60;99.90
20795;DHT22;28087;-33.874;151.240;2023-02-26T07:41:10;25.60;99.90
20795;DHT22;28087;-33.874;151.240;2023-02-26T07:43:45;25.60;99.90
20795;DHT22;28087;-33.874;151.240;2023-02-26T07:46:22;25.60;99.90
20795;DHT22;28087;-33.874;151.240;2023-02-26T07:48:59;25.60;99.90
20795;DHT22;28087;-33.874;151.240;2023-02-26T07:51:35;25.60;99.90
20795;DHT22;28087;-33.874;151.240;2023-02-26T07:54:12;25.60;99.90
20795;DHT22;28087;-33.874;151.240;2023-02-26T07:56:48;25.50;99.90
20795;DHT22;28087;-33.874;151.240;2023-02-26T07:59:23;25.50;99.90
20795;DHT22;28087;-33.874;151.240;2023-02-26T08:01:59;25.50;99.90
20795;DHT22;28087;-33.874;151.240;2023-02-26T08:04:36;25.40;99.90
20795;DHT22;28087;-33.874;151.240;2023-02-26T08:07:14;25.40;99.90
20795;DHT22;28087;-33.874;151.240;2023-02-26T08:09:49;25.30;99.90
20795;DHT22;28087;-33.874;151.240;2023-02-26T08:12:25;25.30;99.90
20795;DHT22;28087;-33.874;151.240;2023-02-26T08:15:00;25.30;99.90
20795;DHT22;28087;-33.874;151.240;2023-02-26T08:17:36;25.30;99.90
20795;DHT22;28087;-33.874;151.240;2023-02-26T08:20:14;25.30;99.90
20795;DHT22;28087;-33.874;151.240;2023-02-26T08:22:50;25.30;99.90
20795;DHT22;28087;-33.874;151.240;2023-02-26T08:25:25;25.30;99.90
20795;DHT22;28087;-33.874;151.240;2023-02-26T08:28:01;25.30;99.90
20795;DHT22;28087;-33.874;151.240;2023-02-26T08:30:36;25.30;99.90
20795;DHT22;28087;-33.874;151.240;2023-02-26T08:33:12;25.40;99.90
20795;DHT22;28087;-33.874;151.240;2023-02-26T08:35:50;25.40;99.90
20795;DHT22;28087;-33.874;151.240;2023-02-26T08:38:27;25.40;99.90
20795;DHT22;28087;-33.874;151.240;2023-02-26T08:41:03;25.40;99.90
20795;DHT22;28087;-33.874;151.240;2023-02-26T08:43:39;25.30;99.90
20795;DHT22;28087;-33.874;151.240;2023-02-26T08:46:16;25.30;99.90
20795;DHT22;28087;-33.874;151.240;2023-02-26T08:48:53;25.30;99.90
20795;DHT22;28087;-33.874;151.240;2023-02-26T08:51:31;25.30;99.90
20795;DHT22;28087;-33.874;151.240;2023-02-26T08:54:07;25.30;99.90
20795;DHT22;28087;-33.874;151.240;2023-02-26T08:56:42;25.30;99.90
20795;DHT22;28087;-33.874;151.240;2023-02-26T08:59:18;25.30;99.90
20795;DHT22;28087;-33.874;151.240;2023-02-26T09:01:54;25.30;99.90
20795;DHT22;28087;-33.874;151.240;2023-02-26T09:04:30;25.20;99.90
20795;DHT22;28087;-33.874;151.240;2023-02-26T09:07:07;25.20;99.90
20795;DHT22;28087;-33.874;151.240;2023-02-26T09:09:43;25.20;99.90
20795;DHT22;28087;-33.874;151.240;2023-02-26T09:12:19;25.20;99.90
20795;DHT22;28087;-33.874;151.240;2023-02-26T09:14:54;25.10;99.90
20795;DHT22;28087;-33.874;151.240;2023-02-26T09:17:31;25.00;99.90
20795;DHT22;28087;-33.874;151.240;2023-02-26T09:20:08;25.10;99.90
20795;DHT22;28087;-33.874;151.240;2023-02-26T09:22:46;25.10;99.90
20795;DHT22;28087;-33.874;151.240;2023-02-26T09:25:22;25.10;99.90
20795;DHT22;28087;-33.874;151.240;2023-02-26T09:27:57;25.10;99.90
20795;DHT22;28087;-33.874;151.240;2023-02-26T09:30:33;25.20;99.90
20795;DHT22;28087;-33.874;151.240;2023-02-26T09:33:09;25.20;99.90
20795;DHT22;28087;-33.874;151.240;2023-02-26T09:35:47;25.20;99.90
20795;DHT22;28087;-33.874;151.240;2023-02-26T09:38:25;25.30;99.90
20795;DHT22;28087;-33.874;151.240;2023-02-26T09:41:06;25.20;99.90
20795;DHT22;28087;-33.874;151.240;2023-02-26T09:46:52;25.30;99.90
20795;DHT22;28087;-33.874;151.240;2023-02-26T09:49:38;25.30;99.90
20795;DHT22;28087;-33.874;151.240;2023-02-26T09:52:20;25.30;99.90
20795;DHT22;28087;-33.874;151.240;2023-02-26T09:55:02;25.30;99.90
20795;DHT22;28087;-33.874;151.240;2023-02-26T09:57:42;25.30;99.90
20795;DHT22;28087;-33.874;151.240;2023-02-26T10:00:23;25.30;99.90
20795;DHT22;28087;-33.874;151.240;2023-02-26T10:03:15;25.30;99.90
20795;DHT22;28087;-33.874;151.240;2023-02-26T10:06:12;25.30;99.90
20795;DHT22;28087;-33.874;151.240;2023-02-26T10:09:01;25.30;99.90
20795;DHT22;28087;-33.874;151.240;2023-02-26T10:11:49;25.30;99.90
20795;DHT22;28087;-33.874;151.240;2023-02-26T10:14:30;25.30;99.90
20795;DHT22;28087;-33.874;151.240;2023-02-26T10:17:14;25.30;99.90
20795;DHT22;28087;-33.874;151.240;2023-02-26T10:19:53;25.30;99.90
20795;DHT22;28087;-33.874;151.240;2023-02-26T10:22:34;25.30;99.90
20795;DHT22;28087;-33.874;151.240;2023-02-26T10:25:12;25.30;99.90
20795;DHT22;28087;-33.874;151.240;2023-02-26T10:27:55;25.30;99.90
20795;DHT22;28087;-33.874;151.240;2023-02-26T10:30:35;25.30;99.90
20795;DHT22;28087;-33.874;151.240;2023-02-26T10:33:17;25.30;99.90
20795;DHT22;28087;-33.874;151.240;2023-02-26T10:36:01;25.30;99.90
20795;DHT22;28087;-33.874;151.240;2023-02-26T10:38:38;25.20;99.90
20795;DHT22;28087;-33.874;151.240;2023-02-26T10:41:17;25.20;99.90
20795;DHT22;28087;-33.874;151.240;2023-02-26T10:44:05;25.20;99.90
20795;DHT22;28087;-33.874;151.240;2023-02-26T10:46:47;25.20;99.90
20795;DHT22;28087;-33.874;151.240;2023-02-26T10:49:44;25.30;99.90
20795;DHT22;28087;-33.874;151.240;2023-02-26T10:52:24;25.20;99.90
20795;DHT22;28087;-33.874;151.240;2023-02-26T10:55:06;25.20;99.90
20795;DHT22;28087;-33.874;151.240;2023-02-26T10:57:45;25.20;99.90
20795;DHT22;28087;-33.874;151.240;2023-02-26T11:00:23;25.20;99.90
20795;DHT22;28087;-33.874;151.240;2023-02-26T11:03:03;25.20;99.90
20795;DHT22;28087;-33.874;151.240;2023-02-26T11:05:39;25.20;99.90
20795;DHT22;28087;-33.874;151.240;2023-02-26T11:08:18;25.30;99.90
20795;DHT22;28087;-33.874;151.240;2023-02-26T11:10:55;25.20;99.90
20795;DHT22;28087;-33.874;151.240;2023-02-26T11:13:35;25.20;99.90
20795;DHT22;28087;-33.874;151.240;2023-02-26T11:16:14;25.20;99.90
20795;DHT22;28087;-33.874;151.240;2023-02-26T11:18:54;25.20;99.90
20795;DHT22;28087;-33.874;151.240;2023-02-26T11:21:33;25.20;99.90
20795;DHT22;28087;-33.874;151.240;2023-02-26T11:24:16;25.20;99.90
20795;DHT22;28087;-33.874;151.240;2023-02-26T11:26:58;25.20;99.90
20795;DHT22;28087;-33.874;151.240;2023-02-26T11:29:37;25.20;99.90
20795;DHT22;28087;-33.874;151.240;2023-02-26T11:32:19;25.20;99.90
20795;DHT22;28087;-33.874;151.240;2023-02-26T11:34:56;25.20;99.90
20795;DHT22;28087;-33.874;151.240;2023-02-26T11:37:35;25.20;99.90
20795;DHT22;28087;-33.874;151.240;2023-02-26T11:40:17;25.20;99.90
20795;DHT22;28087;-33.874;151.240;2023-02-26T11:42:55;25.20;99.90
20795;DHT22;28087;-33.874;151.240;2023-02-26T11:45:35;25.30;99.90
20795;DHT22;28087;-33.874;151.240;2023-02-26T11:48:18;25.30;99.90
20795;DHT22;28087;-33.874;151.240;2023-02-26T11:50:57;25.20;99.90
20795;DHT22;28087;-33.874;151.240;2023-02-26T11:53:37;25.20;99.90
20795;DHT22;28087;-33.874;151.240;2023-02-26T11:56:24;25.10;99.90
20795;DHT22;28087;-33.874;151.240;2023-02-26T11:59:04;25.10;99.90
20795;DHT22;28087;-33.874;151.240;2023-02-26T12:01:41;25.10;99.90
20795;DHT22;28087;-33.874;151.240;2023-02-26T12:04:20;25.10;99.90
20795;DHT22;28087;-33.874;151.240;2023-02-26T12:06:57;25.10;99.90
20795;DHT22;28087;-33.874;151.240;2023-02-26T12:09:33;25.10;99.90
20795;DHT22;28087;-33.874;151.240;2023-02-26T12:12:19;25.10;99.90
20795;DHT22;28087;-33.874;151.240;2023-02-26T12:15:21;25.20;99.90
20795;DHT22;28087;-33.874;151.240;2023-02-26T12:18:37;25.10;99.90
20795;DHT22;28087;-33.874;151.240;2023-02-26T12:21:28;25.10;99.90
20795;DHT22;28087;-33.874;151.240;2023-02-26T12:24:27;25.10;99.90
20795;DHT22;28087;-33.874;151.240;2023-02-26T12:27:15;25.00;99.90
20795;DHT22;28087;-33.874;151.240;2023-02-26T12:30:07;24.90;99.90
20795;DHT22;28087;-33.874;151.240;2023-02-26T12:32:57;24.80;99.90
20795;DHT22;28087;-33.874;151.240;2023-02-26T12:35:43;24.80;99.90
20795;DHT22;28087;-33.874;151.240;2023-02-26T12:38:28;24.70;99.90
20795;DHT22;28087;-33.874;151.240;2023-02-26T12:41:41;24.60;99.90
20795;DHT22;28087;-33.874;151.240;2023-02-26T12:44:28;24.60;99.90
20795;DHT22;28087;-33.874;151.240;2023-02-26T12:47:21;24.40;99.90
20795;DHT22;28087;-33.874;151.240;2023-02-26T12:53:26;24.40;99.90
20795;DHT22;28087;-33.874;151.240;2023-02-26T12:56:31;24.30;99.90
20795;DHT22;28087;-33.874;151.240;2023-02-26T12:59:26;24.30;99.90
20795;DHT22;28087;-33.874;151.240;2023-02-26T13:02:28;24.40;99.90
20795;DHT22;28087;-33.874;151.240;2023-02-26T13:05:23;24.40;99.90
20795;DHT22;28087;-33.874;151.240;2023-02-26T13:08:12;24.30;99.90
20795;DHT22;28087;-33.874;151.240;2023-02-26T13:11:00;24.40;99.90
20795;DHT22;28087;-33.874;151.240;2023-02-26T13:13:50;24.30;99.90
20795;DHT22;28087;-33.874;151.240;2023-02-26T13:16:37;24.40;99.90
20795;DHT22;28087;-33.874;151.240;2023-02-26T13:19:25;24.40;99.90
20795;DHT22;28087;-33.874;151.240;2023-02-26T13:22:14;24.40;99.90
20795;DHT22;28087;-33.874;151.240;2023-02-26T13:24:55;24.40;99.90
20795;DHT22;28087;-33.874;151.240;2023-02-26T13:27:36;24.40;99.90
20795;DHT22;28087;-33.874;151.240;2023-02-26T13:30:21;24.40;99.90
20795;DHT22;28087;-33.874;151.240;2023-02-26T13:32:58;24.40;99.90
20795;DHT22;28087;-33.874;151.240;2023-02-26T13:35:35;24.30;99.90
20795;DHT22;28087;-33.874;151.240;2023-02-26T13:38:18;24.30;99.90
20795;DHT22;28087;-33.874;151.240;2023-02-26T13:41:02;24.40;99.90
20795;DHT22;28087;-33.874;151.240;2023-02-26T13:44:06;24.40;99.90
20795;DHT22;28087;-33.874;151.240;2023-02-26T13:47:02;24.50;99.90
20795;DHT22;28087;-33.874;151.240;2023-02-26T13:49:51;24.50;99.90
20795;DHT22;28087;-33.874;151.240;2023-02-26T13:52:30;24.40;99.90
20795;DHT22;28087;-33.874;151.240;2023-02-26T13:55:33;24.30;99.90
20795;DHT22;28087;-33.874;151.240;2023-02-26T13:58:38;24.30;99.90
20795;DHT22;28087;-33.874;151.240;2023-02-26T14:01:19;24.30;99.90
20795;DHT22;28087;-33.874;151.240;2023-02-26T14:04:23;24.30;99.90
20795;DHT22;28087;-33.874;151.240;2023-02-26T14:07:03;24.30;99.90
20795;DHT22;28087;-33.874;151.240;2023-02-26T14:09:55;24.30;99.90
20795;DHT22;28087;-33.874;151.240;2023-02-26T14:12:36;24.30;99.90
20795;DHT22;28087;-33.874;151.240;2023-02-26T14:15:39;24.30;99.90
20795;DHT22;28087;-33.874;151.240;2023-02-26T14:18:29;24.30;99.90
20795;DHT22;28087;-33.874;151.240;2023-02-26T14:21:36;24.30;99.90
20795;DHT22;28087;-33.874;151.240;2023-02-26T14:24:18;24.30;99.90
20795;DHT22;28087;-33.874;151.240;2023-02-26T14:27:19;24.20;99.90
20795;DHT22;28087;-33.874;151.240;2023-02-26T14:30:04;24.10;99.90
20795;DHT22;28087;-33.874;151.240;2023-02-26T14:32:52;24.00;99.90
20795;DHT22;28087;-33.874;151.240;2023-02-26T14:35:32;23.90;99.90
20795;DHT22;28087;-33.874;151.240;2023-02-26T14:38:12;23.90;99.90
20795;DHT22;28087;-33.874;151.240;2023-02-26T14:40:52;23.90;99.90
20795;DHT22;28087;-33.874;151.240;2023-02-26T14:43:37;23.80;99.90
20795;DHT22;28087;-33.874;151.240;2023-02-26T14:46:14;23.80;99.90
20795;DHT22;28087;-33.874;151.240;2023-02-26T14:48:50;23.90;99.90
20795;DHT22;28087;-33.874;151.240;2023-02-26T14:51:37;23.80;99.90
20795;DHT22;28087;-33.874;151.240;2023-02-26T14:54:26;23.80;99.90
20795;DHT22;28087;-33.874;151.240;2023-02-26T14:57:11;23.80;99.90
20795;DHT22;28087;-33.874;151.240;2023-02-26T15:00:12;23.80;99.90
20795;DHT22;28087;-33.874;151.240;2023-02-26T15:03:05;23.80;99.90
20795;DHT22;28087;-33.874;151.240;2023-02-26T15:06:01;23.70;99.90
20795;DHT22;28087;-33.874;151.240;2023-02-26T15:08:51;23.70;99.90
20795;DHT22;28087;-33.874;151.240;2023-02-26T15:11:42;23.60;99.90
20795;DHT22;28087;-33.874;151.240;2023-02-26T15:14:36;23.60;99.90
20795;DHT22;28087;-33.874;151.240;2023-02-26T15:17:24;23.60;99.90
20795;DHT22;28087;-33.874;151.240;2023-02-26T15:20:08;23.50;99.90
20795;DHT22;28087;-33.874;151.240;2023-02-26T15:22:57;23.40;99.90
20795;DHT22;28087;-33.874;151.240;2023-02-26T15:25:38;23.40;99.90
20795;DHT22;28087;-33.874;151.240;2023-02-26T15:28:18;23.50;99.90
20795;DHT22;28087;-33.874;151.240;2023-02-26T15:30:55;23.40;99.90
20795;DHT22;28087;-33.874;151.240;2023-02-26T15:33:32;23.50;99.90
20795;DHT22;28087;-33.874;151.240;2023-02-26T15:36:11;23.40;99.90
20795;DHT22;28087;-33.874;151.240;2023-02-26T15:38:49;23.50;99.90
20795;DHT22;28087;-33.874;151.240;2023-02-26T15:41:28;23.40;99.90
20795;DHT22;28087;-33.874;151.240;2023-02-26T15:44:06;23.40;99.90
20795;DHT22;28087;-33.874;151.240;2023-02-26T15:46:44;23.40;99.90
20795;DHT22;28087;-33.874;151.240;2023-02-26T15:49:24;23.40;99.90
20795;DHT22;28087;-33.874;151.240;2023-02-26T15:52:03;23.40;99.90
20795;DHT22;28087;-33.874;151.240;2023-02-26T15:54:41;23.40;99.90
20795;DHT22;28087;-33.874;151.240;2023-02-26T15:57:20;23.40;99.90
20795;DHT22;28087;-33.874;151.240;2023-02-26T16:00:04;23.30;99.90
20795;DHT22;28087;-33.874;151.240;2023-02-26T16:02:41;23.30;99.90
20795;DHT22;28087;-33.874;151.240;2023-02-26T16:05:18;23.30;99.90
20795;DHT22;28087;-33.874;151.240;2023-02-26T16:07:54;23.30;99.90
20795;DHT22;28087;-33.874;151.240;2023-02-26T16:10:33;23.30;99.90
20795;DHT22;28087;-33.874;151.240;2023-02-26T16:13:15;23.30;99.90
20795;DHT22;28087;-33.874;151.240;2023-02-26T16:15:52;23.30;99.90
20795;DHT22;28087;-33.874;151.240;2023-02-26T16:18:29;23.30;99.90
20795;DHT22;28087;-33.874;151.240;2023-02-26T16:21:06;23.30;99.90
20795;DHT22;28087;-33.874;151.240;2023-02-26T16:23:47;23.30;99.90